Nichioh Maru — JD3267 — position and weather

sailwx.info

Track history (hours):
 
Tides and Currents Weather Stations Pressure Air Temp Water Temp Dewpoint Dewpoint Depression Visibility Wind Speed Wind Dir Waves Ship Positions

Nichioh Maru

Last reported at 2014-Oct-22 02:21 UTC. Time now 2014-Oct-23 03:59 UTC.
Position N 33°50' E 132°18'.

Length 170 m; draft 6.5 m.

Type: Cargo ship. MMSI: 431003232.

Date/timePositionNaut miles runAvg speedWind from/ knotsBaromVisibWave heightAir tempDewpointWater temp
2014-Oct-22 02:21N 33°50' E 132°18'1416.9
2014-Oct-22 01:31N 34°02' E 132°27'1818.3
2014-Oct-22 00:33N 34°18' E 132°21'2 2.5
2014-Oct-21 23:33N 34°21' E 132°22'0 0.0
2014-Oct-21 22:34N 34°21' E 132°22'0 0.0
2014-Oct-21 21:33N 34°21' E 132°22'1 1.0
2014-Oct-21 20:33N 34°20' E 132°22'0 0.0
2014-Oct-21 19:33N 34°20' E 132°22'0 0.0
2014-Oct-21 18:33N 34°20' E 132°22'0 0.0
2014-Oct-21 17:33N 34°20' E 132°22'0 0.0
2014-Oct-21 16:33N 34°20' E 132°22'0 0.1
2014-Oct-21 15:33N 34°20' E 132°22'0 0.0
2014-Oct-21 14:33N 34°20' E 132°22'7 6.8
2014-Oct-21 13:33N 34°13' E 132°21'1616.0
2014-Oct-21 12:33N 34°04' E 132°37'115 3.6
2014-Oct-20 04:30N 34°35' E 134°50'1616.7
2014-Oct-20 03:33N 34°36' E 135°10'6 5.4
2014-Oct-20 02:29N 34°41' E 135°13'0 0.0
2014-Oct-20 01:29N 34°41' E 135°13'0 0.0
2014-Oct-20 00:29N 34°41' E 135°13'0 0.0
2014-Oct-19 23:29N 34°41' E 135°13'3 2.8
2014-Oct-19 22:33N 34°39' E 135°16'1312.8
2014-Oct-19 21:33N 34°28' E 135°07'1616.2
2014-Oct-19 20:33N 34°14' E 134°58'230 7.0
2014-Oct-18 11:27N 35°01' E 139°32'1415.2
2014-Oct-18 10:33N 35°10' E 139°45'1312.9
2014-Oct-18 09:33N 35°22' E 139°42'8 8.4
2014-Oct-18 08:33N 35°30' E 139°46'0 0.0
2014-Oct-18 07:30N 35°30' E 139°46'0 0.0
2014-Oct-18 06:31N 35°30' E 139°46'0 0.0
2014-Oct-18 05:33N 35°30' E 139°46'0 0.0
2014-Oct-18 04:33N 35°30' E 139°46'5 4.9
2014-Oct-18 03:33N 35°25' E 139°46'9 8.6
2014-Oct-18 02:33N 35°19' E 139°39'0 0.0
2014-Oct-18 01:32N 35°19' E 139°39'0 0.0
2014-Oct-18 00:32N 35°19' E 139°39'0 0.0
2014-Oct-17 23:32N 35°19' E 139°39'5 5.3
2014-Oct-17 22:33N 35°17' E 139°45'1512.1
2014-Oct-17 21:19N 35°03' E 139°42'23915.1
2014-Oct-17 05:33N 34°11' E 134°58'1818.1
2014-Oct-17 04:33N 34°27' E 135°07'1514.8
2014-Oct-17 03:33N 34°41' E 135°14'0 0.1
2014-Oct-17 02:16N 34°41' E 135°13'0 0.0
2014-Oct-17 01:22N 34°41' E 135°13'0 0.0
2014-Oct-17 00:22N 34°41' E 135°13'0 0.0
2014-Oct-16 23:28N 34°41' E 135°13'2 2.4
2014-Oct-16 22:33N 34°39' E 135°16'1110.8
2014-Oct-16 21:33N 34°29' E 135°11'1413.9
2014-Oct-16 20:33N 34°19' E 135°00'1616.5
2014-Oct-16 19:33N 34°02' E 135°01'  
2014-Oct-14 10:33N 35°09' E 139°45'1212.3
2014-Oct-14 09:33N 35°21' E 139°42'7 7.2
2014-Oct-14 08:32N 35°24' E 139°51'0 0.1
2014-Oct-14 07:29N 35°24' E 139°51'0 0.0
2014-Oct-14 06:23N 35°24' E 139°51'0 0.1
2014-Oct-14 05:26N 35°24' E 139°51'0 0.1
2014-Oct-14 04:23N 35°24' E 139°51'0 0.1
2014-Oct-14 03:32N 35°24' E 139°51'0 0.0
2014-Oct-14 02:29N 35°24' E 139°51'0 0.1
2014-Oct-14 01:26N 35°24' E 139°51'0 0.1
2014-Oct-14 00:28N 35°24' E 139°51'0 0.0
2014-Oct-13 20:29N 35°24' E 139°51'0 0.0
2014-Oct-13 18:29N 35°24' E 139°51'0 0.0
2014-Oct-13 16:29N 35°24' E 139°51'0 0.0
2014-Oct-12 20:31N 35°24' E 139°51'0 0.0
2014-Oct-12 19:16N 35°24' E 139°51'0 0.0
2014-Oct-12 18:25N 35°24' E 139°51'0 0.0
2014-Oct-12 16:25N 35°24' E 139°51'0 0.0
2014-Oct-12 13:10N 35°24' E 139°51'0 0.0
2014-Oct-12 11:31N 35°24' E 139°51'0 0.0
2014-Oct-12 10:22N 35°24' E 139°51'0 0.0
2014-Oct-12 09:25N 35°24' E 139°51'0 0.0
2014-Oct-12 08:19N 35°24' E 139°51'0 0.0
2014-Oct-12 06:07N 35°24' E 139°51'0 0.0
2014-Oct-12 05:25N 35°24' E 139°51'0 0.0
2014-Oct-12 03:25N 35°24' E 139°51'0 0.1
2014-Oct-12 02:31N 35°24' E 139°51'  
Track history (hours):
 
Tides and Currents Weather Stations Pressure Air Temp Water Temp Dewpoint Dewpoint Depression Visibility Wind Speed Wind Dir Waves Ship Positions

Nichioh Maru

Last reported at 2014-Oct-22 02:21 UTC. Time now 2014-Oct-23 03:59 UTC.
Position N 33°50' E 132°18'.

Length 170 m; draft 6.5 m.

Type: Cargo ship. MMSI: 431003232.

Date/timePositionNaut miles runAvg speedWind from/ knotsBaromVisibWave heightAir tempDewpointWater temp
2014-Oct-22 02:21N 33°50' E 132°18'1416.9
2014-Oct-22 01:31N 34°02' E 132°27'1818.3
2014-Oct-22 00:33N 34°18' E 132°21'2 2.5
2014-Oct-21 23:33N 34°21' E 132°22'0 0.0
2014-Oct-21 22:34N 34°21' E 132°22'0 0.0
2014-Oct-21 21:33N 34°21' E 132°22'1 1.0
2014-Oct-21 20:33N 34°20' E 132°22'0 0.0
2014-Oct-21 19:33N 34°20' E 132°22'0 0.0
2014-Oct-21 18:33N 34°20' E 132°22'0 0.0
2014-Oct-21 17:33N 34°20' E 132°22'0 0.0
2014-Oct-21 16:33N 34°20' E 132°22'0 0.1
2014-Oct-21 15:33N 34°20' E 132°22'0 0.0
2014-Oct-21 14:33N 34°20' E 132°22'7 6.8
2014-Oct-21 13:33N 34°13' E 132°21'1616.0
2014-Oct-21 12:33N 34°04' E 132°37'115 3.6
2014-Oct-20 04:30N 34°35' E 134°50'1616.7
2014-Oct-20 03:33N 34°36' E 135°10'6 5.4
2014-Oct-20 02:29N 34°41' E 135°13'0 0.0
2014-Oct-20 01:29N 34°41' E 135°13'0 0.0
2014-Oct-20 00:29N 34°41' E 135°13'0 0.0
2014-Oct-19 23:29N 34°41' E 135°13'3 2.8
2014-Oct-19 22:33N 34°39' E 135°16'1312.8
2014-Oct-19 21:33N 34°28' E 135°07'1616.2
2014-Oct-19 20:33N 34°14' E 134°58'230 7.0
2014-Oct-18 11:27N 35°01' E 139°32'1415.2
2014-Oct-18 10:33N 35°10' E 139°45'1312.9
2014-Oct-18 09:33N 35°22' E 139°42'8 8.4
2014-Oct-18 08:33N 35°30' E 139°46'0 0.0
2014-Oct-18 07:30N 35°30' E 139°46'0 0.0
2014-Oct-18 06:31N 35°30' E 139°46'0 0.0
2014-Oct-18 05:33N 35°30' E 139°46'0 0.0
2014-Oct-18 04:33N 35°30' E 139°46'5 4.9
2014-Oct-18 03:33N 35°25' E 139°46'9 8.6
2014-Oct-18 02:33N 35°19' E 139°39'0 0.0
2014-Oct-18 01:32N 35°19' E 139°39'0 0.0
2014-Oct-18 00:32N 35°19' E 139°39'0 0.0
2014-Oct-17 23:32N 35°19' E 139°39'5 5.3
2014-Oct-17 22:33N 35°17' E 139°45'1512.1
2014-Oct-17 21:19N 35°03' E 139°42'23915.1
2014-Oct-17 05:33N 34°11' E 134°58'1818.1
2014-Oct-17 04:33N 34°27' E 135°07'1514.8
2014-Oct-17 03:33N 34°41' E 135°14'0 0.1
2014-Oct-17 02:16N 34°41' E 135°13'0 0.0
2014-Oct-17 01:22N 34°41' E 135°13'0 0.0
2014-Oct-17 00:22N 34°41' E 135°13'0 0.0
2014-Oct-16 23:28N 34°41' E 135°13'2 2.4
2014-Oct-16 22:33N 34°39' E 135°16'1110.8
2014-Oct-16 21:33N 34°29' E 135°11'1413.9
2014-Oct-16 20:33N 34°19' E 135°00'1616.5
2014-Oct-16 19:33N 34°02' E 135°01'  
2014-Oct-14 10:33N 35°09' E 139°45'1212.3
2014-Oct-14 09:33N 35°21' E 139°42'7 7.2
2014-Oct-14 08:32N 35°24' E 139°51'0 0.1
2014-Oct-14 07:29N 35°24' E 139°51'0 0.0
2014-Oct-14 06:23N 35°24' E 139°51'0 0.1
2014-Oct-14 05:26N 35°24' E 139°51'0 0.1
2014-Oct-14 04:23N 35°24' E 139°51'0 0.1
2014-Oct-14 03:32N 35°24' E 139°51'0 0.0
2014-Oct-14 02:29N 35°24' E 139°51'0 0.1
2014-Oct-14 01:26N 35°24' E 139°51'0 0.1
2014-Oct-14 00:28N 35°24' E 139°51'0 0.0
2014-Oct-13 20:29N 35°24' E 139°51'0 0.0
2014-Oct-13 18:29N 35°24' E 139°51'0 0.0
2014-Oct-13 16:29N 35°24' E 139°51'0 0.0
2014-Oct-12 20:31N 35°24' E 139°51'0 0.0
2014-Oct-12 19:16N 35°24' E 139°51'0 0.0
2014-Oct-12 18:25N 35°24' E 139°51'0 0.0
2014-Oct-12 16:25N 35°24' E 139°51'0 0.0
2014-Oct-12 13:10N 35°24' E 139°51'0 0.0
2014-Oct-12 11:31N 35°24' E 139°51'0 0.0
2014-Oct-12 10:22N 35°24' E 139°51'0 0.0
2014-Oct-12 09:25N 35°24' E 139°51'0 0.0
2014-Oct-12 08:19N 35°24' E 139°51'0 0.0
2014-Oct-12 06:07N 35°24' E 139°51'0 0.0
2014-Oct-12 05:25N 35°24' E 139°51'0 0.0
2014-Oct-12 03:25N 35°24' E 139°51'0 0.1
2014-Oct-12 02:31N 35°24' E 139°51'  

Dump ship's entire track history